Time;durP1;ratioP1;P1;durP2;ratioP2;P2;SDS_P1;SDS_P2;PMS_P1;PMS_P2;Temp;Humidity;BMP_temperature;BMP_pressure;BME280_temperature;BME280_humidity;BME280_pressure;Samples;Min_cycle;Max_cycle;Signal;HPM_P1;HPM_P2
2020/05/12 00:00:08;;;;;;;3.3;2.85;;;;;;;3.31;95.69727;94870.04;;;;
2020/05/12 00:03:10;;;;;;;3.3;2.85;;;;;;;3.31;95.69727;94870.04;;;;
2020/05/12 00:04:19;;;;;;;3.3;2.85;;;;;;;3.31;95.69727;94870.04;;;;
2020/05/12 00:11:35;;;;;;;3.25;2.95;;;;;;;3.29;95.7041;94882.79;;;;
2020/05/12 00:12:35;;;;;;;3.25;2.95;;;;;;;3.29;95.7041;94882.79;;;;
2020/05/12 00:13:35;;;;;;;3.25;2.95;;;;;;;3.29;95.7041;94882.79;;;;
2020/05/12 00:14:36;;;;;;;3.25;2.95;;;;;;;3.29;95.7041;94882.79;;;;
2020/05/12 00:15:36;;;;;;;3.25;2.95;;;;;;;3.29;95.7041;94882.79;;;;
2020/05/12 00:16:40;;;;;;;3.5;3.2;;;;;;;3.35;95.89355;94893.97;;;;
2020/05/12 00:17:43;;;;;;;3.5;3.2;;;;;;;3.35;95.89355;94893.97;;;;
2020/05/12 00:18:44;;;;;;;3.5;3.2;;;;;;;3.35;95.89355;94893.97;;;;
2020/05/12 00:19:46;;;;;;;3.5;3.2;;;;;;;3.35;95.89355;94893.97;;;;
2020/05/12 00:20:47;;;;;;;3.5;3.2;;;;;;;3.35;95.89355;94893.97;;;;
2020/05/12 00:21:48;;;;;;;3.5;3.2;;;;;;;3.35;95.89355;94893.97;;;;
2020/05/12 00:22:49;;;;;;;3.5;3.2;;;;;;;3.35;95.89355;94893.97;;;;
2020/05/12 00:23:49;;;;;;;3.5;3.2;;;;;;;3.35;95.89355;94893.97;;;;
2020/05/12 00:24:50;;;;;;;3.5;3.2;;;;;;;3.35;95.89355;94893.97;;;;
2020/05/12 00:25:50;;;;;;;3.5;3.2;;;;;;;3.35;95.89355;94893.97;;;;
2020/05/12 00:26:52;;;;;;;3.599999;3.3;;;;;;;3.32;96.03418;94897.55;;;;
2020/05/12 00:27:52;;;;;;;3.599999;3.3;;;;;;;3.32;96.03418;94897.55;;;;
2020/05/12 00:28:53;;;;;;;3.599999;3.3;;;;;;;3.32;96.03418;94897.55;;;;
2020/05/12 00:29:55;;;;;;;3.599999;3.3;;;;;;;3.32;96.03418;94897.55;;;;
2020/05/12 00:30:55;;;;;;;3.599999;3.3;;;;;;;3.32;96.03418;94897.55;;;;
2020/05/12 00:31:56;;;;;;;3.599999;3.3;;;;;;;3.32;96.03418;94897.55;;;;
2020/05/12 00:32:56;;;;;;;3.599999;3.3;;;;;;;3.32;96.03418;94897.55;;;;
2020/05/12 00:33:57;;;;;;;3.599999;3.3;;;;;;;3.32;96.03418;94897.55;;;;
2020/05/12 00:34:57;;;;;;;3.599999;3.3;;;;;;;3.32;96.03418;94897.55;;;;
2020/05/12 00:35:58;;;;;;;3.599999;3.3;;;;;;;3.32;96.03418;94897.55;;;;
2020/05/12 00:36:58;;;;;;;3.599999;3.3;;;;;;;3.32;96.03418;94897.55;;;;
2020/05/12 00:38:00;;;;;;;3.45;3.15;;;;;;;3.36;96.4209;94906.72;;;;
2020/05/12 00:39:01;;;;;;;3.45;3.15;;;;;;;3.36;96.4209;94906.72;;;;
2020/05/12 00:40:03;;;;;;;3.45;3.15;;;;;;;3.36;96.4209;94906.72;;;;
2020/05/12 00:41:03;;;;;;;3.45;3.15;;;;;;;3.36;96.4209;94906.72;;;;
2020/05/12 00:42:06;;;;;;;3.45;3.15;;;;;;;3.36;96.4209;94906.72;;;;
2020/05/12 00:43:07;;;;;;;3.45;3.15;;;;;;;3.36;96.4209;94906.72;;;;
2020/05/12 00:44:07;;;;;;;3.45;3.15;;;;;;;3.36;96.4209;94906.72;;;;
2020/05/12 00:45:10;;;;;;;3.45;3.15;;;;;;;3.36;96.4209;94906.72;;;;
2020/05/12 00:46:10;;;;;;;3.45;3.15;;;;;;;3.36;96.4209;94906.72;;;;
2020/05/12 00:47:11;;;;;;;3.45;3.15;;;;;;;3.36;96.4209;94906.72;;;;
2020/05/12 00:48:12;;;;;;;3.9;3.5;;;;;;;3.35;96.46875;94918.4;;;;
2020/05/12 00:49:12;;;;;;;3.9;3.5;;;;;;;3.35;96.46875;94918.4;;;;
2020/05/12 00:50:13;;;;;;;3.9;3.5;;;;;;;3.35;96.46875;94918.4;;;;
2020/05/12 00:51:13;;;;;;;3.9;3.5;;;;;;;3.35;96.46875;94918.4;;;;
2020/05/12 00:52:14;;;;;;;3.9;3.5;;;;;;;3.35;96.46875;94918.4;;;;
2020/05/12 00:53:14;;;;;;;3.9;3.5;;;;;;;3.35;96.46875;94918.4;;;;
2020/05/12 00:54:15;;;;;;;3.9;3.5;;;;;;;3.35;96.46875;94918.4;;;;
2020/05/12 00:55:16;;;;;;;3.9;3.5;;;;;;;3.35;96.46875;94918.4;;;;
2020/05/12 00:56:17;;;;;;;3.9;3.5;;;;;;;3.35;96.46875;94918.4;;;;
2020/05/12 00:57:17;;;;;;;3.9;3.5;;;;;;;3.35;96.46875;94918.4;;;;
2020/05/12 00:58:18;;;;;;;3.9;3.5;;;;;;;3.35;96.46875;94918.4;;;;
2020/05/12 00:59:19;;;;;;;4.3;3.9;;;;;;;3.43;96.64453;94928.49;;;;
2020/05/12 01:00:19;;;;;;;4.3;3.9;;;;;;;3.43;96.64453;94928.49;;;;
2020/05/12 01:01:24;;;;;;;4.3;3.9;;;;;;;3.43;96.64453;94928.49;;;;
2020/05/12 01:07:57;;;;;;;4.3;3.9;;;;;;;3.43;96.64453;94928.49;;;;
2020/05/12 01:09:04;;;;;;;4.3;3.9;;;;;;;3.43;96.64453;94928.49;;;;
2020/05/12 01:10:13;;;;;;;4.9;4.4;;;;;;;3.46;96.76367;94944.59;;;;
2020/05/12 01:11:24;;;;;;;4.9;4.4;;;;;;;3.46;96.76367;94944.59;;;;
2020/05/12 01:13:34;;;;;;;4.9;4.4;;;;;;;3.46;96.76367;94944.59;;;;
2020/05/12 01:14:38;;;;;;;4.9;4.4;;;;;;;3.46;96.76367;94944.59;;;;
2020/05/12 01:15:42;;;;;;;4.9;4.4;;;;;;;3.46;96.76367;94944.59;;;;
2020/05/12 01:16:44;;;;;;;4.9;4.4;;;;;;;3.46;96.76367;94944.59;;;;
2020/05/12 01:17:45;;;;;;;4.9;4.4;;;;;;;3.46;96.76367;94944.59;;;;
2020/05/12 01:18:45;;;;;;;4.9;4.4;;;;;;;3.46;96.76367;94944.59;;;;
2020/05/12 01:19:46;;;;;;;4.9;4.4;;;;;;;3.46;96.76367;94944.59;;;;
2020/05/12 01:20:46;;;;;;;4.95;4.45;;;;;;;3.55;97.14063;94947.8;;;;
2020/05/12 01:21:47;;;;;;;4.95;4.45;;;;;;;3.55;97.14063;94947.8;;;;
2020/05/12 01:22:49;;;;;;;4.95;4.45;;;;;;;3.55;97.14063;94947.8;;;;
2020/05/12 01:23:52;;;;;;;4.95;4.45;;;;;;;3.55;97.14063;94947.8;;;;
2020/05/12 01:24:52;;;;;;;4.95;4.45;;;;;;;3.55;97.14063;94947.8;;;;
2020/05/12 01:25:53;;;;;;;4.95;4.45;;;;;;;3.55;97.14063;94947.8;;;;
2020/05/12 01:26:54;;;;;;;4.95;4.45;;;;;;;3.55;97.14063;94947.8;;;;
2020/05/12 01:27:55;;;;;;;4.95;4.45;;;;;;;3.55;97.14063;94947.8;;;;
2020/05/12 01:28:55;;;;;;;4.95;4.45;;;;;;;3.55;97.14063;94947.8;;;;
2020/05/12 01:29:56;;;;;;;4.95;4.45;;;;;;;3.55;97.14063;94947.8;;;;
2020/05/12 01:30:56;;;;;;;5.7;5.1;;;;;;;3.59;97.20313;94973.08;;;;
2020/05/12 01:31:57;;;;;;;5.7;5.1;;;;;;;3.59;97.20313;94973.08;;;;
2020/05/12 01:32:57;;;;;;;5.7;5.1;;;;;;;3.59;97.20313;94973.08;;;;
2020/05/12 01:33:58;;;;;;;5.7;5.1;;;;;;;3.59;97.20313;94973.08;;;;
2020/05/12 01:35:06;;;;;;;5.7;5.1;;;;;;;3.59;97.20313;94973.08;;;;
2020/05/12 01:36:07;;;;;;;5.7;5.1;;;;;;;3.59;97.20313;94973.08;;;;
2020/05/12 01:37:08;;;;;;;5.7;5.1;;;;;;;3.59;97.20313;94973.08;;;;
2020/05/12 01:38:09;;;;;;;5.7;5.1;;;;;;;3.59;97.20313;94973.08;;;;
2020/05/12 01:39:09;;;;;;;5.7;5.1;;;;;;;3.59;97.20313;94973.08;;;;
2020/05/12 01:40:12;;;;;;;5.7;5.1;;;;;;;3.59;97.20313;94973.08;;;;
2020/05/12 01:41:12;;;;;;;5.7;4.9;;;;;;;3.64;97.4541;94981.3;;;;
2020/05/12 01:42:13;;;;;;;5.7;4.9;;;;;;;3.64;97.4541;94981.3;;;;
2020/05/12 01:43:13;;;;;;;5.7;4.9;;;;;;;3.64;97.4541;94981.3;;;;
2020/05/12 01:44:13;;;;;;;5.7;4.9;;;;;;;3.64;97.4541;94981.3;;;;
2020/05/12 01:45:14;;;;;;;5.7;4.9;;;;;;;3.64;97.4541;94981.3;;;;
2020/05/12 01:46:14;;;;;;;5.7;4.9;;;;;;;3.64;97.4541;94981.3;;;;
2020/05/12 01:47:15;;;;;;;5.7;4.9;;;;;;;3.64;97.4541;94981.3;;;;
2020/05/12 01:48:15;;;;;;;5.7;4.9;;;;;;;3.64;97.4541;94981.3;;;;
2020/05/12 01:49:17;;;;;;;5.7;4.9;;;;;;;3.64;97.4541;94981.3;;;;
2020/05/12 01:50:18;;;;;;;5.7;4.9;;;;;;;3.64;97.4541;94981.3;;;;
2020/05/12 01:51:19;;;;;;;5.7;4.9;;;;;;;3.64;97.4541;94981.3;;;;
2020/05/12 01:52:19;;;;;;;5;4.5;;;;;;;3.64;97.58008;94998.65;;;;
2020/05/12 01:53:19;;;;;;;5;4.5;;;;;;;3.64;97.58008;94998.65;;;;
2020/05/12 01:54:21;;;;;;;5;4.5;;;;;;;3.64;97.58008;94998.65;;;;
2020/05/12 01:55:21;;;;;;;5;4.5;;;;;;;3.64;97.58008;94998.65;;;;
2020/05/12 01:56:23;;;;;;;5;4.5;;;;;;;3.64;97.58008;94998.65;;;;
2020/05/12 01:57:23;;;;;;;5;4.5;;;;;;;3.64;97.58008;94998.65;;;;
2020/05/12 01:58:24;;;;;;;5;4.5;;;;;;;3.64;97.58008;94998.65;;;;
2020/05/12 01:59:24;;;;;;;5;4.5;;;;;;;3.64;97.58008;94998.65;;;;
2020/05/12 02:00:25;;;;;;;5;4.5;;;;;;;3.64;97.58008;94998.65;;;;
2020/05/12 02:01:29;;;;;;;5;4.5;;;;;;;3.64;97.58008;94998.65;;;;
2020/05/12 02:02:31;;;;;;;6.05;5.450001;;;;;;;3.68;97.83984;94998.99;;;;
2020/05/12 02:03:31;;;;;;;6.05;5.450001;;;;;;;3.68;97.83984;94998.99;;;;
2020/05/12 02:04:36;;;;;;;6.05;5.450001;;;;;;;3.68;97.83984;94998.99;;;;
2020/05/12 02:05:47;;;;;;;6.05;5.450001;;;;;;;3.68;97.83984;94998.99;;;;
2020/05/12 02:06:52;;;;;;;6.05;5.450001;;;;;;;3.68;97.83984;94998.99;;;;
2020/05/12 02:07:54;;;;;;;6.05;5.450001;;;;;;;3.68;97.83984;94998.99;;;;
2020/05/12 02:14:10;;;;;;;8.050001;6.199999;;;;;;;3.67;97.8584;95004.91;;;;
2020/05/12 02:15:10;;;;;;;8.050001;6.199999;;;;;;;3.67;97.8584;95004.91;;;;
2020/05/12 02:16:11;;;;;;;8.050001;6.199999;;;;;;;3.67;97.8584;95004.91;;;;
2020/05/12 02:17:11;;;;;;;8.050001;6.199999;;;;;;;3.67;97.8584;95004.91;;;;
2020/05/12 02:18:12;;;;;;;8.050001;6.199999;;;;;;;3.67;97.8584;95004.91;;;;
2020/05/12 02:19:12;;;;;;;8.050001;6.199999;;;;;;;3.67;97.8584;95004.91;;;;
2020/05/12 02:20:15;;;;;;;8.050001;6.199999;;;;;;;3.67;97.8584;95004.91;;;;
2020/05/12 02:21:16;;;;;;;8.050001;6.199999;;;;;;;3.67;97.8584;95004.91;;;;
2020/05/12 02:22:16;;;;;;;8.050001;6.199999;;;;;;;3.67;97.8584;95004.91;;;;
2020/05/12 02:23:17;;;;;;;8.050001;6.199999;;;;;;;3.67;97.8584;95004.91;;;;
2020/05/12 02:24:17;;;;;;;6.899999;6.099999;;;;;;;3.72;98.12207;95005.58;;;;
2020/05/12 02:25:18;;;;;;;6.899999;6.099999;;;;;;;3.72;98.12207;95005.58;;;;
2020/05/12 02:26:18;;;;;;;6.899999;6.099999;;;;;;;3.72;98.12207;95005.58;;;;
2020/05/12 02:27:19;;;;;;;6.899999;6.099999;;;;;;;3.72;98.12207;95005.58;;;;
2020/05/12 02:28:19;;;;;;;6.899999;6.099999;;;;;;;3.72;98.12207;95005.58;;;;
2020/05/12 02:29:20;;;;;;;6.899999;6.099999;;;;;;;3.72;98.12207;95005.58;;;;
2020/05/12 02:30:20;;;;;;;6.899999;6.099999;;;;;;;3.72;98.12207;95005.58;;;;
2020/05/12 02:31:21;;;;;;;6.899999;6.099999;;;;;;;3.72;98.12207;95005.58;;;;
2020/05/12 02:32:21;;;;;;;6.899999;6.099999;;;;;;;3.72;98.12207;95005.58;;;;
2020/05/12 02:33:21;;;;;;;6.899999;6.099999;;;;;;;3.72;98.12207;95005.58;;;;
2020/05/12 02:34:22;;;;;;;7;6;;;;;;;3.76;98.20117;95020.26;;;;
2020/05/12 02:35:23;;;;;;;7;6;;;;;;;3.76;98.20117;95020.26;;;;
2020/05/12 02:36:24;;;;;;;7;6;;;;;;;3.76;98.20117;95020.26;;;;
2020/05/12 02:37:24;;;;;;;7;6;;;;;;;3.76;98.20117;95020.26;;;;
2020/05/12 02:38:24;;;;;;;7;6;;;;;;;3.76;98.20117;95020.26;;;;
2020/05/12 02:39:25;;;;;;;7;6;;;;;;;3.76;98.20117;95020.26;;;;
2020/05/12 02:40:30;;;;;;;7;6;;;;;;;3.76;98.20117;95020.26;;;;
2020/05/12 02:41:34;;;;;;;7;6;;;;;;;3.76;98.20117;95020.26;;;;
2020/05/12 02:42:35;;;;;;;7;6;;;;;;;3.76;98.20117;95020.26;;;;
2020/05/12 02:43:35;;;;;;;7;6;;;;;;;3.76;98.20117;95020.26;;;;
2020/05/12 02:44:35;;;;;;;7;6;;;;;;;3.76;98.20117;95020.26;;;;
2020/05/12 02:45:36;;;;;;;6.149999;5.100001;;;;;;;3.82;98.32129;95030.03;;;;
2020/05/12 02:46:36;;;;;;;6.149999;5.100001;;;;;;;3.82;98.32129;95030.03;;;;
2020/05/12 02:47:37;;;;;;;6.149999;5.100001;;;;;;;3.82;98.32129;95030.03;;;;
2020/05/12 02:48:37;;;;;;;6.149999;5.100001;;;;;;;3.82;98.32129;95030.03;;;;
2020/05/12 02:49:38;;;;;;;6.149999;5.100001;;;;;;;3.82;98.32129;95030.03;;;;
2020/05/12 02:50:39;;;;;;;6.149999;5.100001;;;;;;;3.82;98.32129;95030.03;;;;
2020/05/12 02:51:39;;;;;;;6.149999;5.100001;;;;;;;3.82;98.32129;95030.03;;;;
2020/05/12 02:52:40;;;;;;;6.149999;5.100001;;;;;;;3.82;98.32129;95030.03;;;;
2020/05/12 02:53:40;;;;;;;6.149999;5.100001;;;;;;;3.82;98.32129;95030.03;;;;
2020/05/12 02:54:40;;;;;;;6.149999;5.100001;;;;;;;3.82;98.32129;95030.03;;;;
2020/05/12 02:55:41;;;;;;;4.6;4.100001;;;;;;;3.77;98.2793;95041.83;;;;
2020/05/12 02:56:41;;;;;;;4.6;4.100001;;;;;;;3.77;98.2793;95041.83;;;;
2020/05/12 02:57:43;;;;;;;4.6;4.100001;;;;;;;3.77;98.2793;95041.83;;;;
2020/05/12 02:58:46;;;;;;;4.6;4.100001;;;;;;;3.77;98.2793;95041.83;;;;
2020/05/12 02:59:46;;;;;;;4.6;4.100001;;;;;;;3.77;98.2793;95041.83;;;;
2020/05/12 03:00:47;;;;;;;4.6;4.100001;;;;;;;3.77;98.2793;95041.83;;;;
2020/05/12 03:01:49;;;;;;;4.6;4.100001;;;;;;;3.77;98.2793;95041.83;;;;
2020/05/12 03:02:49;;;;;;;4.6;4.100001;;;;;;;3.77;98.2793;95041.83;;;;
2020/05/12 03:03:50;;;;;;;4.6;4.100001;;;;;;;3.77;98.2793;95041.83;;;;
2020/05/12 03:04:50;;;;;;;4.6;4.100001;;;;;;;3.77;98.2793;95041.83;;;;
2020/05/12 03:05:51;;;;;;;5.049999;4.2;;;;;;;3.73;98.41504;95041.91;;;;
2020/05/12 03:06:51;;;;;;;5.049999;4.2;;;;;;;3.73;98.41504;95041.91;;;;
2020/05/12 03:07:52;;;;;;;5.049999;4.2;;;;;;;3.73;98.41504;95041.91;;;;
2020/05/12 03:08:53;;;;;;;5.049999;4.2;;;;;;;3.73;98.41504;95041.91;;;;
2020/05/12 03:09:53;;;;;;;5.049999;4.2;;;;;;;3.73;98.41504;95041.91;;;;
2020/05/12 03:10:54;;;;;;;5.049999;4.2;;;;;;;3.73;98.41504;95041.91;;;;
2020/05/12 03:11:55;;;;;;;5.049999;4.2;;;;;;;3.73;98.41504;95041.91;;;;
2020/05/12 03:12:55;;;;;;;5.049999;4.2;;;;;;;3.73;98.41504;95041.91;;;;
2020/05/12 03:13:56;;;;;;;5.049999;4.2;;;;;;;3.73;98.41504;95041.91;;;;
2020/05/12 03:14:57;;;;;;;5.049999;4.2;;;;;;;3.73;98.41504;95041.91;;;;
2020/05/12 03:15:58;;;;;;;5.049999;4.2;;;;;;;3.73;98.41504;95041.91;;;;
2020/05/12 03:22:22;;;;;;;5.3;4.049999;;;;;;;3.7;98.60938;95039.65;;;;
2020/05/12 03:23:28;;;;;;;5.3;4.049999;;;;;;;3.7;98.60938;95039.65;;;;
2020/05/12 03:25:31;;;;;;;5.3;4.049999;;;;;;;3.7;98.60938;95039.65;;;;
2020/05/12 03:26:38;;;;;;;5.3;4.049999;;;;;;;3.7;98.60938;95039.65;;;;
2020/05/12 03:32:57;;;;;;;5.150001;3.75;;;;;;;3.75;98.83984;95051.89;;;;
2020/05/12 03:34:04;;;;;;;5.150001;3.75;;;;;;;3.75;98.83984;95051.89;;;;
2020/05/12 03:36:12;;;;;;;5.150001;3.75;;;;;;;3.75;98.83984;95051.89;;;;
2020/05/12 03:37:13;;;;;;;5.150001;3.75;;;;;;;3.75;98.83984;95051.89;;;;
2020/05/12 03:38:13;;;;;;;6.8;3.75;;;;;;;3.72;98.77051;95071.37;;;;
2020/05/12 03:39:14;;;;;;;6.8;3.75;;;;;;;3.72;98.77051;95071.37;;;;
2020/05/12 03:40:14;;;;;;;6.8;3.75;;;;;;;3.72;98.77051;95071.37;;;;
2020/05/12 03:41:16;;;;;;;6.8;3.75;;;;;;;3.72;98.77051;95071.37;;;;
2020/05/12 03:42:17;;;;;;;6.8;3.75;;;;;;;3.72;98.77051;95071.37;;;;
2020/05/12 03:43:17;;;;;;;6.8;3.75;;;;;;;3.72;98.77051;95071.37;;;;
2020/05/12 03:44:18;;;;;;;6.8;3.75;;;;;;;3.72;98.77051;95071.37;;;;
2020/05/12 03:45:20;;;;;;;6.8;3.75;;;;;;;3.72;98.77051;95071.37;;;;
2020/05/12 03:46:20;;;;;;;6.8;3.75;;;;;;;3.72;98.77051;95071.37;;;;
2020/05/12 03:47:22;;;;;;;6.8;3.75;;;;;;;3.72;98.77051;95071.37;;;;
2020/05/12 03:48:23;;;;;;;3.65;3.15;;;;;;;3.74;98.90039;95088.55;;;;
2020/05/12 03:49:24;;;;;;;3.65;3.15;;;;;;;3.74;98.90039;95088.55;;;;
2020/05/12 03:50:24;;;;;;;3.65;3.15;;;;;;;3.74;98.90039;95088.55;;;;
2020/05/12 03:51:25;;;;;;;3.65;3.15;;;;;;;3.74;98.90039;95088.55;;;;
2020/05/12 03:52:25;;;;;;;3.65;3.15;;;;;;;3.74;98.90039;95088.55;;;;
2020/05/12 03:53:25;;;;;;;3.65;3.15;;;;;;;3.74;98.90039;95088.55;;;;
2020/05/12 03:54:27;;;;;;;3.65;3.15;;;;;;;3.74;98.90039;95088.55;;;;
2020/05/12 03:56:36;;;;;;;3.65;3.15;;;;;;;3.74;98.90039;95088.55;;;;
2020/05/12 03:58:58;;;;;;;3.65;3.15;;;;;;;3.74;98.90039;95088.55;;;;
2020/05/12 04:00:10;;;;;;;3.25;2.95;;;;;;;3.67;98.79883;95089;;;;
2020/05/12 04:16:32;;;;;;;3.7;2.8;;;;;;;3.68;98.86426;95095.59;;;;
2020/05/12 04:17:32;;;;;;;3.7;2.8;;;;;;;3.68;98.86426;95095.59;;;;
2020/05/12 04:18:35;;;;;;;3.7;2.8;;;;;;;3.68;98.86426;95095.59;;;;
2020/05/12 04:19:35;;;;;;;3.7;2.8;;;;;;;3.68;98.86426;95095.59;;;;
2020/05/12 04:20:52;;;;;;;3.4;2.4;;;;;;;3.63;98.62305;95104.21;;;;
2020/05/12 04:21:53;;;;;;;3.4;2.4;;;;;;;3.63;98.62305;95104.21;;;;
2020/05/12 04:22:53;;;;;;;3.4;2.4;;;;;;;3.63;98.62305;95104.21;;;;
2020/05/12 04:23:54;;;;;;;3.4;2.4;;;;;;;3.63;98.62305;95104.21;;;;
2020/05/12 04:24:54;;;;;;;3.4;2.4;;;;;;;3.63;98.62305;95104.21;;;;
2020/05/12 04:25:55;;;;;;;3.4;2.4;;;;;;;3.63;98.62305;95104.21;;;;
2020/05/12 04:26:55;;;;;;;3.4;2.4;;;;;;;3.63;98.62305;95104.21;;;;
2020/05/12 04:27:55;;;;;;;3.4;2.4;;;;;;;3.63;98.62305;95104.21;;;;
2020/05/12 04:28:56;;;;;;;3.4;2.4;;;;;;;3.63;98.62305;95104.21;;;;
2020/05/12 04:29:57;;;;;;;3.4;2.4;;;;;;;3.63;98.62305;95104.21;;;;
2020/05/12 04:31:08;;;;;;;3.6;2.7;;;;;;;3.68;98.76953;95117.78;;;;
2020/05/12 04:32:15;;;;;;;3.6;2.7;;;;;;;3.68;98.76953;95117.78;;;;
2020/05/12 04:35:10;;;;;;;3.6;2.7;;;;;;;3.68;98.76953;95117.78;;;;
2020/05/12 04:36:34;;;;;;;3.6;2.7;;;;;;;3.68;98.76953;95117.78;;;;
2020/05/12 04:38:12;;;;;;;3.6;2.7;;;;;;;3.68;98.76953;95117.78;;;;
2020/05/12 04:39:25;;;;;;;3.6;2.7;;;;;;;3.68;98.76953;95117.78;;;;
2020/05/12 04:40:26;;;;;;;3.6;2.7;;;;;;;3.68;98.76953;95117.78;;;;
2020/05/12 04:50:04;;;;;;;4.65;2.5;;;;;;;3.7;98.59863;95129.1;;;;
2020/05/12 04:51:06;;;;;;;4.65;2.5;;;;;;;3.7;98.59863;95129.1;;;;
2020/05/12 04:52:09;;;;;;;2.65;2.4;;;;;;;3.87;98.66699;95147.86;;;;
2020/05/12 04:53:16;;;;;;;2.65;2.4;;;;;;;3.87;98.66699;95147.86;;;;
2020/05/12 04:54:21;;;;;;;2.65;2.4;;;;;;;3.87;98.66699;95147.86;;;;
2020/05/12 04:56:48;;;;;;;2.65;2.4;;;;;;;3.87;98.66699;95147.86;;;;
2020/05/12 04:57:50;;;;;;;2.65;2.4;;;;;;;3.87;98.66699;95147.86;;;;
2020/05/12 04:58:57;;;;;;;2.65;2.4;;;;;;;3.87;98.66699;95147.86;;;;
2020/05/12 05:00:21;;;;;;;2.65;2.4;;;;;;;3.87;98.66699;95147.86;;;;
2020/05/12 05:06:39;;;;;;;4;2.55;;;;;;;3.96;98.42676;95154.57;;;;
2020/05/12 05:07:54;;;;;;;4;2.55;;;;;;;3.96;98.42676;95154.57;;;;
2020/05/12 05:08:55;;;;;;;4;2.55;;;;;;;3.96;98.42676;95154.57;;;;
2020/05/12 05:09:56;;;;;;;4;2.55;;;;;;;3.96;98.42676;95154.57;;;;
2020/05/12 05:14:16;;;;;;;2.7;2.5;;;;;;;4.14;98.42578;95158.45;;;;
2020/05/12 05:15:20;;;;;;;2.7;2.5;;;;;;;4.14;98.42578;95158.45;;;;
2020/05/12 05:16:21;;;;;;;2.7;2.5;;;;;;;4.14;98.42578;95158.45;;;;
2020/05/12 05:17:21;;;;;;;2.7;2.5;;;;;;;4.14;98.42578;95158.45;;;;
2020/05/12 05:18:22;;;;;;;2.7;2.5;;;;;;;4.14;98.42578;95158.45;;;;
2020/05/12 05:19:22;;;;;;;2.7;2.5;;;;;;;4.14;98.42578;95158.45;;;;
2020/05/12 05:20:23;;;;;;;2.7;2.5;;;;;;;4.14;98.42578;95158.45;;;;
2020/05/12 05:21:23;;;;;;;2.7;2.5;;;;;;;4.14;98.42578;95158.45;;;;
2020/05/12 05:22:24;;;;;;;2.7;2.5;;;;;;;4.14;98.42578;95158.45;;;;
2020/05/12 05:23:24;;;;;;;2.7;2.5;;;;;;;4.14;98.42578;95158.45;;;;
2020/05/12 05:24:24;;;;;;;3.2;2.5;;;;;;;4.28;98.38184;95165.59;;;;
2020/05/12 05:25:25;;;;;;;3.2;2.5;;;;;;;4.28;98.38184;95165.59;;;;
2020/05/12 05:26:25;;;;;;;3.2;2.5;;;;;;;4.28;98.38184;95165.59;;;;
2020/05/12 05:27:26;;;;;;;3.2;2.5;;;;;;;4.28;98.38184;95165.59;;;;
2020/05/12 05:28:27;;;;;;;3.2;2.5;;;;;;;4.28;98.38184;95165.59;;;;
2020/05/12 05:29:27;;;;;;;3.2;2.5;;;;;;;4.28;98.38184;95165.59;;;;
2020/05/12 05:30:28;;;;;;;3.2;2.5;;;;;;;4.28;98.38184;95165.59;;;;
2020/05/12 05:31:28;;;;;;;3.2;2.5;;;;;;;4.28;98.38184;95165.59;;;;
2020/05/12 05:32:33;;;;;;;3.2;2.5;;;;;;;4.28;98.38184;95165.59;;;;
2020/05/12 05:34:53;;;;;;;3.2;2.5;;;;;;;4.28;98.38184;95165.59;;;;
2020/05/12 05:37:00;;;;;;;2.75;2.55;;;;;;;4.36;98.16309;95177.34;;;;
2020/05/12 05:38:09;;;;;;;2.75;2.55;;;;;;;4.36;98.16309;95177.34;;;;
2020/05/12 05:39:10;;;;;;;2.75;2.55;;;;;;;4.36;98.16309;95177.34;;;;
2020/05/12 05:40:12;;;;;;;2.75;2.55;;;;;;;4.36;98.16309;95177.34;;;;
2020/05/12 05:41:13;;;;;;;2.75;2.55;;;;;;;4.36;98.16309;95177.34;;;;
2020/05/12 05:42:13;;;;;;;2.75;2.55;;;;;;;4.36;98.16309;95177.34;;;;
2020/05/12 05:43:13;;;;;;;2.75;2.55;;;;;;;4.36;98.16309;95177.34;;;;
2020/05/12 05:44:14;;;;;;;2.75;2.55;;;;;;;4.36;98.16309;95177.34;;;;
2020/05/12 05:45:16;;;;;;;2.95;2.55;;;;;;;4.4;98.17969;95181.78;;;;
2020/05/12 05:50:57;;;;;;;2.95;2.55;;;;;;;4.4;98.17969;95181.78;;;;
2020/05/12 05:52:34;;;;;;;2.95;2.55;;;;;;;4.4;98.17969;95181.78;;;;
2020/05/12 05:53:38;;;;;;;2.95;2.55;;;;;;;4.4;98.17969;95181.78;;;;
2020/05/12 05:54:38;;;;;;;2.95;2.55;;;;;;;4.4;98.17969;95181.78;;;;
2020/05/12 05:55:39;;;;;;;3.45;2.6;;;;;;;4.51;98.14063;95186.13;;;;
2020/05/12 05:56:39;;;;;;;3.45;2.6;;;;;;;4.51;98.14063;95186.13;;;;
2020/05/12 05:57:40;;;;;;;3.45;2.6;;;;;;;4.51;98.14063;95186.13;;;;
2020/05/12 05:58:41;;;;;;;3.45;2.6;;;;;;;4.51;98.14063;95186.13;;;;
2020/05/12 06:00:06;;;;;;;3.45;2.6;;;;;;;4.51;98.14063;95186.13;;;;
2020/05/12 06:16:50;;;;;;;3.8;2.65;;;;;;;4.9;97.87402;95196.91;;;;
2020/05/12 06:18:55;;;;;;;3.8;2.65;;;;;;;4.9;97.87402;95196.91;;;;
2020/05/12 06:19:58;;;;;;;3.8;2.65;;;;;;;4.9;97.87402;95196.91;;;;
2020/05/12 06:21:03;;;;;;;3.8;2.65;;;;;;;4.9;97.87402;95196.91;;;;
2020/05/12 06:22:04;;;;;;;3.8;2.65;;;;;;;4.9;97.87402;95196.91;;;;
2020/05/12 06:23:05;;;;;;;3.8;2.65;;;;;;;4.9;97.87402;95196.91;;;;
2020/05/12 06:24:05;;;;;;;3.8;2.65;;;;;;;4.9;97.87402;95196.91;;;;
2020/05/12 06:25:06;;;;;;;3.8;2.65;;;;;;;4.9;97.87402;95196.91;;;;
2020/05/12 06:26:06;;;;;;;3.8;2.65;;;;;;;4.9;97.87402;95196.91;;;;
2020/05/12 06:27:07;;;;;;;3.8;2.65;;;;;;;4.9;97.87402;95196.91;;;;
2020/05/12 06:29:14;;;;;;;2.849999;2.55;;;;;;;5.07;97.42969;95207.14;;;;
2020/05/12 06:30:14;;;;;;;2.849999;2.55;;;;;;;5.07;97.42969;95207.14;;;;
2020/05/12 06:31:20;;;;;;;2.849999;2.55;;;;;;;5.07;97.42969;95207.14;;;;
2020/05/12 06:32:26;;;;;;;2.849999;2.55;;;;;;;5.07;97.42969;95207.14;;;;
2020/05/12 06:33:27;;;;;;;2.849999;2.55;;;;;;;5.07;97.42969;95207.14;;;;
2020/05/12 06:34:33;;;;;;;2.849999;2.55;;;;;;;5.07;97.42969;95207.14;;;;
2020/05/12 06:35:34;;;;;;;2.849999;2.55;;;;;;;5.07;97.42969;95207.14;;;;
2020/05/12 06:36:35;;;;;;;2.849999;2.55;;;;;;;5.07;97.42969;95207.14;;;;
2020/05/12 06:37:36;;;;;;;2.849999;2.55;;;;;;;5.07;97.42969;95207.14;;;;
2020/05/12 06:38:37;;;;;;;3.75;2.750001;;;;;;;5.68;97.09473;95211.27;;;;
2020/05/12 06:39:37;;;;;;;3.75;2.750001;;;;;;;5.68;97.09473;95211.27;;;;
2020/05/12 06:40:37;;;;;;;3.75;2.750001;;;;;;;5.68;97.09473;95211.27;;;;
2020/05/12 06:41:38;;;;;;;3.75;2.750001;;;;;;;5.68;97.09473;95211.27;;;;
2020/05/12 06:42:39;;;;;;;3.75;2.750001;;;;;;;5.68;97.09473;95211.27;;;;
2020/05/12 06:43:40;;;;;;;3.75;2.750001;;;;;;;5.68;97.09473;95211.27;;;;
2020/05/12 06:44:40;;;;;;;3.75;2.750001;;;;;;;5.68;97.09473;95211.27;;;;
2020/05/12 06:45:44;;;;;;;3.75;2.750001;;;;;;;5.68;97.09473;95211.27;;;;
2020/05/12 06:46:44;;;;;;;3.75;2.750001;;;;;;;5.68;97.09473;95211.27;;;;
2020/05/12 06:47:45;;;;;;;3.75;2.750001;;;;;;;5.68;97.09473;95211.27;;;;
2020/05/12 06:48:45;;;;;;;3.400001;2.65;;;;;;;6.8;95.29102;95215.68;;;;
2020/05/12 06:49:46;;;;;;;3.400001;2.65;;;;;;;6.8;95.29102;95215.68;;;;
2020/05/12 06:50:47;;;;;;;3.400001;2.65;;;;;;;6.8;95.29102;95215.68;;;;
2020/05/12 06:51:47;;;;;;;3.400001;2.65;;;;;;;6.8;95.29102;95215.68;;;;
2020/05/12 06:52:48;;;;;;;3.400001;2.65;;;;;;;6.8;95.29102;95215.68;;;;
2020/05/12 06:53:48;;;;;;;3.400001;2.65;;;;;;;6.8;95.29102;95215.68;;;;
2020/05/12 06:54:48;;;;;;;3.400001;2.65;;;;;;;6.8;95.29102;95215.68;;;;
2020/05/12 06:55:49;;;;;;;3.400001;2.65;;;;;;;6.8;95.29102;95215.68;;;;
2020/05/12 06:56:49;;;;;;;3.400001;2.65;;;;;;;6.8;95.29102;95215.68;;;;
2020/05/12 06:57:50;;;;;;;3.400001;2.65;;;;;;;6.8;95.29102;95215.68;;;;
2020/05/12 06:58:50;;;;;;;3.400001;2.65;;;;;;;6.8;95.29102;95215.68;;;;
2020/05/12 06:59:51;;;;;;;4.25;2.6;;;;;;;8.19;93.42676;95216.66;;;;
2020/05/12 07:00:51;;;;;;;4.25;2.6;;;;;;;8.19;93.42676;95216.66;;;;
2020/05/12 07:01:53;;;;;;;4.25;2.6;;;;;;;8.19;93.42676;95216.66;;;;
2020/05/12 07:02:53;;;;;;;4.25;2.6;;;;;;;8.19;93.42676;95216.66;;;;
2020/05/12 07:03:54;;;;;;;4.25;2.6;;;;;;;8.19;93.42676;95216.66;;;;
2020/05/12 07:04:54;;;;;;;4.25;2.6;;;;;;;8.19;93.42676;95216.66;;;;
2020/05/12 07:05:55;;;;;;;4.25;2.6;;;;;;;8.19;93.42676;95216.66;;;;
2020/05/12 07:06:55;;;;;;;4.25;2.6;;;;;;;8.19;93.42676;95216.66;;;;
2020/05/12 07:07:56;;;;;;;4.25;2.6;;;;;;;8.19;93.42676;95216.66;;;;
2020/05/12 07:08:57;;;;;;;4.25;2.6;;;;;;;8.19;93.42676;95216.66;;;;
2020/05/12 07:09:57;;;;;;;3.05;2.2;;;;;;;9.33;89.68066;95226.46;;;;
2020/05/12 07:10:58;;;;;;;3.05;2.2;;;;;;;9.33;89.68066;95226.46;;;;
2020/05/12 07:11:58;;;;;;;3.05;2.2;;;;;;;9.33;89.68066;95226.46;;;;
2020/05/12 07:12:59;;;;;;;3.05;2.2;;;;;;;9.33;89.68066;95226.46;;;;
2020/05/12 07:13:59;;;;;;;3.05;2.2;;;;;;;9.33;89.68066;95226.46;;;;
2020/05/12 07:15:01;;;;;;;3.05;2.2;;;;;;;9.33;89.68066;95226.46;;;;
2020/05/12 07:16:02;;;;;;;3.05;2.2;;;;;;;9.33;89.68066;95226.46;;;;
2020/05/12 07:17:02;;;;;;;3.05;2.2;;;;;;;9.33;89.68066;95226.46;;;;
2020/05/12 07:18:03;;;;;;;3.05;2.2;;;;;;;9.33;89.68066;95226.46;;;;
2020/05/12 07:19:04;;;;;;;3.05;2.2;;;;;;;9.33;89.68066;95226.46;;;;
2020/05/12 07:20:04;;;;;;;3.05;2.2;;;;;;;9.33;89.68066;95226.46;;;;
2020/05/12 07:21:05;;;;;;;3.45;2.4;;;;;;;11.25;87.62109;95232.51;;;;
2020/05/12 07:22:06;;;;;;;3.45;2.4;;;;;;;11.25;87.62109;95232.51;;;;
2020/05/12 07:23:06;;;;;;;3.45;2.4;;;;;;;11.25;87.62109;95232.51;;;;
2020/05/12 07:24:07;;;;;;;3.45;2.4;;;;;;;11.25;87.62109;95232.51;;;;
2020/05/12 07:25:09;;;;;;;3.45;2.4;;;;;;;11.25;87.62109;95232.51;;;;
2020/05/12 07:26:10;;;;;;;3.45;2.4;;;;;;;11.25;87.62109;95232.51;;;;
2020/05/12 07:27:10;;;;;;;3.45;2.4;;;;;;;11.25;87.62109;95232.51;;;;
2020/05/12 07:28:10;;;;;;;3.45;2.4;;;;;;;11.25;87.62109;95232.51;;;;
2020/05/12 07:29:11;;;;;;;3.45;2.4;;;;;;;11.25;87.62109;95232.51;;;;
2020/05/12 07:30:12;;;;;;;3.45;2.4;;;;;;;11.25;87.62109;95232.51;;;;